SAZB/BHI METAR and TAF weather

Enter ICAO airport designator
Station Type Date Time Source
SAZB METAR 2020/08/05 16:18 UTC NOAA

SAZB 051618Z 32007KT 9999 FEW010 BKN050 11/10 Q1013


Station Type Date Time Source
SAZB Decoded METAR 2020/08/05 16:18 UTC NOAA

Bahia Blanca Aerodrome, Argentina (SAZB) 38-44S 062-10W 83M
Aug 05, 2020 - 12:18 PM EDT / 2020.08.05 1618 UTC
Wind: from the NW (320 degrees) at 8 MPH (7 KT):0
Visibility: greater than 7 mile(s):0
Sky conditions: mostly cloudy
Temperature: 51 F (11 C)
Dew Point: 50 F (10 C)
Relative Humidity: 93%
Pressure (altimeter): 29.91 in. Hg (1013 hPa)
ob: SAZB 051618Z 32007KT 9999 FEW010 BKN050 11/10 Q1013
cycle: 16

Station Type Date Time Source
SAZB TAF 2020/06/26 12:09 UTC NOAA

TAF SAZB 261100Z 2612/2712 27005KT CAVOK TX08/2618Z TN03/2710Z
BECMG 2700/2702 9999 SCT040
BECMG 2702/2704 7000 RA SCT010 OVC030

Example: see airport list